Data for 08/07/2018

Time Sea-Level Adjusted Pressure Absolute Pressure Temperature Relative Humidity Dew Point   
(mb) (inHg) (mb) (inHg) (C) (F) (%) (C) (F)
00:05 1023 30.21 852 25.16 15.6 60.2 44 3.5 38.3
00:10 1023 30.21 852 25.16 15.4 59.6 45 3.6 38.5
00:15 1023 30.21 852 25.16 15.1 59.2 45 3.5 38.3
00:20 1023 30.21 852 25.16 15.1 59.2 45 3.4 38.1
00:25 1023 30.21 852 25.16 15.1 59.2 45 3.4 38.1
00:30 1023 30.21 852 25.16 15.1 59.1 45 3.4 38
00:35 1023 30.21 852 25.16 14.9 58.9 45 3.3 37.9
00:40 1023 30.21 852 25.16 14.8 58.7 46 3.4 38.1
00:45 1023 30.21 853 25.19 14.8 58.6 46 3.5 38.2
00:50 1023 30.21 853 25.19 14.7 58.4 47 3.6 38.6
00:55 1023 30.21 853 25.19 14.6 58.2 47 3.4 38.2
01:00 1023 30.21 853 25.19 14.6 58.2 46 3.1 37.5
01:05 1023 30.21 853 25.19 14.9 58.8 45 3.1 37.7
01:10 1023 30.21 853 25.19 15.1 59.1 44 3.1 37.6
01:15 1023 30.21 853 25.19 14.7 58.5 46 3.4 38.1
01:20 1023 30.21 853 25.19 14.5 58.1 46 3.2 37.8
01:25 1023 30.21 853 25.19 14.3 57.7 48 3.4 38.1
01:30 1023 30.21 853 25.19 13.9 57.1 49 3.4 38.1
01:35 1023 30.21 853 25.19 13.8 56.8 50 3.5 38.3
01:40 1023 30.21 853 25.19 13.6 56.4 49 3.2 37.7
01:45 1023 30.21 853 25.19 13.6 56.4 49 3.1 37.6
01:50 1023 30.21 852 25.16 13.7 56.7 48 2.9 37.3
01:55 1023 30.21 852 25.16 13.8 56.8 49 3.4 38.1
02:00 1023 30.21 853 25.19 13.7 56.6 49 3.1 37.6
02:05 1023 30.21 853 25.19 13.8 56.8 48 3 37.3
02:10 1023 30.21 852 25.16 13.7 56.7 49 3.3 37.9
02:15 1023 30.21 853 25.19 13.4 56.1 51 3.5 38.3
02:20 1023 30.21 853 25.19 13.1 55.5 53 3.7 38.7
02:25 1023 30.21 853 25.19 12.9 55.1 50 2.9 37.1
02:30 1023 30.21 852 25.16 13.1 55.6 50 3.1 37.6
02:35 1023 30.21 853 25.19 13 55.3 51 3.2 37.8
02:40 1023 30.21 853 25.19 12.9 55.2 51 3.1 37.6
02:45 1023 30.21 853 25.19 13 55.3 51 3.1 37.5
02:50 1023 30.21 852 25.16 13 55.3 51 3 37.4
02:55 1023 30.21 852 25.16 12.9 55.2 51 3.1 37.6
03:00 1023 30.21 852 25.16 12.8 55 52 3.2 37.8
03:05 1023 30.21 852 25.16 12.6 54.7 52 3.1 37.6
03:10 1023 30.21 852 25.16 12.5 54.6 51 2.8 37.1
03:15 1023 30.21 852 25.16 12.9 55.2 49 2.6 36.7
03:20 1023 30.21 852 25.16 13.1 55.5 49 2.6 36.7
03:25 1023 30.21 852 25.16 13.2 55.7 49 2.7 36.8
03:30 1023 30.21 852 25.16 13.2 55.7 49 2.8 37
03:35 1023 30.21 852 25.16 13.3 55.9 47 2.2 35.9
03:40 1023 30.21 852 25.16 13.7 56.6 46 2.5 36.5
03:45 1023 30.21 852 25.16 13.6 56.4 47 2.6 36.7
03:50 1023 30.21 852 25.16 13.4 56.1 47 2.4 36.4
03:55 1023 30.21 852 25.16 13.4 56.1 47 2.4 36.3
04:00 1023 30.21 852 25.16 13.6 56.4 47 2.4 36.3
04:05 1023 30.21 852 25.16 13.6 56.4 47 2.7 36.8
04:10 1023 30.21 852 25.16 13.3 55.9 48 2.7 36.8
04:15 1023 30.21 852 25.16 13.1 55.5 49 2.7 36.8
04:20 1023 30.21 852 25.16 13 55.4 49 2.6 36.6
04:25 1023 30.21 852 25.16 12.9 55.2 50 2.7 36.9
04:30 1023 30.21 852 25.16 12.8 55 50 2.7 36.8
04:35 1023 30.21 852 25.16 12.7 54.9 50 2.6 36.7
04:40 1023 30.21 852 25.16 12.8 55 49 2.4 36.2
04:45 1023 30.21 852 25.16 12.9 55.3 49 2.5 36.4
04:50 1023 30.21 852 25.16 13 55.4 48 2.2 36
04:55 1023 30.21 852 25.16 13.4 56.1 46 2.2 36
05:00 1023 30.21 852 25.16 13.2 55.8 48 2.5 36.4
05:05 1023 30.21 852 25.16 13.1 55.5 48 2.4 36.4
05:10 1023 30.21 852 25.16 13 55.4 48 2.4 36.4
05:15 1023 30.21 852 25.16 13 55.5 48 2.3 36.1
05:20 1023 30.21 852 25.16 13 55.4 48 2.3 36.2
05:25 1023 30.21 852 25.16 13 55.4 48 2.3 36.1
05:30 1023 30.21 852 25.16 13.2 55.7 47 2.3 36.1
05:35 1023 30.21 852 25.16 13.2 55.8 46 1.9 35.4
05:40 1023 30.21 852 25.16 13.4 56.1 47 2.3 36.1
05:45 1023 30.21 852 25.16 13.4 56.1 47 2.4 36.3
05:50 1023 30.21 852 25.16 12.9 55.3 49 2.7 36.8
05:55 1023 30.21 852 25.16 12.8 55 49 2.4 36.3
06:00 1023 30.21 852 25.16 12.7 54.9 50 2.6 36.7
06:05 1023 30.21 852 25.16 12.4 54.2 52 2.9 37.2
06:10 1023 30.21 852 25.16 12.1 53.8 50 2.1 35.8
06:15 1023 30.21 852 25.16 12.7 54.9 47 1.8 35.3
06:20 1023 30.21 852 25.16 13.2 55.7 48 2.6 36.7
06:25 1023 30.21 852 25.16 12.6 54.6 51 2.9 37.2
06:30 1023 30.21 852 25.16 12.1 53.8 52 2.7 36.9
06:35 1023 30.21 852 25.16 12 53.5 52 2.6 36.6
06:40 1023 30.21 852 25.16 12.3 54.2 50 2.2 36
06:45 1023 30.21 852 25.16 12.7 54.9 49 2.4 36.3
06:50 1023 30.21 852 25.16 12.8 55 49 2.3 36.1
06:55 1023 30.21 853 25.19 12.7 54.9 50 2.6 36.6
07:00 1023 30.21 852 25.16 12.7 54.8 51 2.8 37
07:05 1023 30.21 852 25.16 12.6 54.6 51 2.7 36.9
07:10 1023 30.21 853 25.19 12.4 54.4 51 2.8 37
07:15 1023 30.21 853 25.19 12.6 54.7 51 2.8 37
07:20 1023 30.21 853 25.19 12.7 54.9 50 2.7 36.8
07:25 1024 30.24 853 25.19 13.1 55.5 49 2.7 36.8
07:30 1024 30.24 853 25.19 13.6 56.4 49 3 37.5
07:35 1024 30.24 853 25.19 14.2 57.5 46 2.9 37.2
07:40 1024 30.24 853 25.19 14.5 58.1 45 2.8 37
07:45 1024 30.24 853 25.19 14.9 58.9 45 3.3 37.9
07:50 1024 30.24 853 25.19 14.6 58.2 46 3.2 37.8
07:55 1024 30.24 853 25.19 14.5 58 47 3.3 37.9
08:00 1024 30.24 853 25.19 14.4 57.9 48 3.7 38.7
08:05 1024 30.24 853 25.19 14.4 57.9 49 3.8 38.9
08:10 1024 30.24 853 25.19 14.9 58.8 47 3.7 38.6
08:15 1024 30.24 853 25.19 15.5 59.9 46 4.2 39.5
08:20 1024 30.24 853 25.19 15.4 59.8 48 4.5 40.1
08:25 1024 30.24 853 25.19 15.8 60.5 45 4 39.3
08:30 1024 30.24 853 25.19 15.9 60.7 49 5.2 41.4
08:35 1024 30.24 853 25.19 16 60.8 49 5.5 41.9
08:40 1024 30.24 853 25.19 16.2 61.1 48 5.3 41.5
08:45 1024 30.24 853 25.19 16.5 61.8 48 5.5 41.9
08:50 1024 30.24 853 25.19 16.6 61.9 46 5 41.1
08:55 1024 30.24 853 25.19 17.3 63.1 41 3.9 39
09:00 1024 30.24 853 25.19 18.6 65.4 36 3.5 38.3
09:05 1024 30.24 853 25.19 19 66.2 38 4.6 40.4
09:10 1024 30.24 853 25.19 19.3 66.7 38 4.6 40.3
09:15 1024 30.24 853 25.19 20 68 36 4.6 40.2
09:20 1024 30.24 853 25.19 20 67.9 36 4.7 40.4
09:25 1024 30.24 853 25.19 19.4 66.9 38 4.9 40.8
09:30 1024 30.24 853 25.19 19.7 67.4 37 4.6 40.3
09:35 1024 30.24 853 25.19 20 67.9 37 4.8 40.7
09:40 1024 30.24 853 25.19 20.7 69.3 34 4.7 40.4
09:45 1024 30.24 853 25.19 20.9 69.5 34 4.4 40
09:50 1024 30.24 853 25.19 20.8 69.4 32 3.8 38.8
09:55 1024 30.24 853 25.19 21.3 70.4 30 3.3 37.9
10:00 1024 30.24 853 25.19 21.9 71.3 31 4 39.2
10:05 1024 30.24 853 25.19 22.2 72 29 3.5 38.2
10:10 1024 30.24 853 25.19 22.2 72 29 3.3 38
10:15 1024 30.24 853 25.19 22.3 72.1 28 3.4 38
10:20 1024 30.24 853 25.19 22.2 71.9 28 3.2 37.8
10:25 1024 30.24 853 25.19 22.6 72.7 28 3.4 38.2
10:30 1024 30.24 853 25.19 22.3 72.1 30 4.1 39.4
10:35 1024 30.24 853 25.19 21.6 70.9 29 3 37.4
10:40 1024 30.24 853 25.19 22.3 72.2 29 3.4 38.2
10:45 1024 30.24 853 25.19 22.9 73.1 28 3.5 38.3
10:50 1024 30.24 853 25.19 23.3 73.9 28 3.8 38.8
10:55 1024 30.24 853 25.19 23.5 74.4 26 3 37.4
11:00 1024 30.24 853 25.19 23.5 74.4 26 2.9 37.3
11:05 1024 30.24 853 25.19 23.6 74.5 25 2.4 36.4
11:10 1024 30.24 853 25.19 24.3 75.7 24 2.5 36.4
11:15 1024 30.24 853 25.19 24.3 75.8 26 3.9 39.1
11:20 1024 30.24 853 25.19 24.1 75.4 23 1.9 35.4
11:25 1024 30.24 853 25.19 24.1 75.5 23 2 35.6
11:30 1024 30.24 853 25.19 24.4 75.9 22 1.5 34.6
11:35 1024 30.24 853 25.19 24.3 75.7 22 1.7 35.1
11:40 1023 30.21 853 25.19 24.2 75.5 24 2.4 36.3
11:45 1023 30.21 853 25.19 24.5 76 22 1.6 35
11:50 1023 30.21 853 25.19 24.8 76.6 21 1.5 34.8
11:55 1023 30.21 853 25.19 24.6 76.3 23 2.1 35.9
12:00 1023 30.21 853 25.19 24.8 76.6 23 2.2 36
12:05 1023 30.21 852 25.16 25 76.9 22 2.2 36
12:10 1023 30.21 852 25.16 25.1 77.2 23 2.5 36.5
12:15 1023 30.21 852 25.16 24.4 76 25 3.5 38.4
12:20 1023 30.21 852 25.16 23.6 74.5 25 2.6 36.7
12:25 1023 30.21 852 25.16 24.5 76 23 2.3 36.2
12:30 1023 30.21 852 25.16 24.7 76.5 23 2.4 36.3
12:35 1023 30.21 852 25.16 24.1 75.4 24 2.7 36.9
12:40 1023 30.21 852 25.16 24.6 76.3 22 1.9 35.5
12:45 1023 30.21 852 25.16 24.9 76.9 21 1.4 34.6
12:50 1023 30.21 852 25.16 25.1 77.3 19 -0.1 31.8
12:55 1023 30.21 852 25.16 25 77 22 1.9 35.4
13:00 1023 30.21 852 25.16 25.1 77.1 20 0.5 33
13:05 1023 30.21 852 25.16 25.4 77.7 21 1.5 34.7
13:10 1023 30.21 852 25.16 25.5 77.9 19 0.7 33.2
13:15 1023 30.21 852 25.16 26 78.7 19 1.1 34
13:20 1023 30.21 852 25.16 24.8 76.6 22 1.9 35.4
13:25 1023 30.21 852 25.16 25.2 77.3 20 0.6 33.2
13:30 1022 30.18 852 25.16 24.9 76.8 20 0.5 33
13:35 1022 30.18 852 25.16 25.6 78 20 1.4 34.5
13:40 1022 30.18 852 25.16 25.3 77.5 20 1.1 34
13:45 1022 30.18 852 25.16 25 76.9 20 0.7 33.2
13:50 1022 30.18 852 25.16 25 77 20 0.8 33.5
13:55 1022 30.18 852 25.16 26.2 79.1 20 1.8 35.2
14:00 1022 30.18 851 25.13 25.8 78.5 19 0.9 33.6
14:05 1022 30.18 851 25.13 26.2 79.1 18 0.4 32.7
14:10 1022 30.18 851 25.13 25.4 77.6 21 1.4 34.6
14:15 1022 30.18 851 25.13 25.9 78.6 19 0.5 32.8
14:20 1022 30.18 851 25.13 26.8 80.3 18 0.8 33.4
14:25 1022 30.18 851 25.13 26.4 79.6 20 1.8 35.2
14:30 1022 30.18 851 25.13 26 78.8 19 0.8 33.4
14:35 1022 30.18 851 25.13 26.3 79.4 19 1.4 34.5
14:40 1022 30.18 851 25.13 26.2 79.2 20 1.5 34.7
14:45 1022 30.18 851 25.13 26.6 79.9 19 1.3 34.3
14:50 1022 30.18 851 25.13 26.6 79.8 19 1.2 34.1
14:55 1022 30.18 851 25.13 26.5 79.7 18 0.7 33.3
15:00 1022 30.18 851 25.13 26.6 79.8 18 0.8 33.5
15:05 1022 30.18 851 25.13 27 80.6 18 0.7 33.2
15:10 1022 30.18 851 25.13 27 80.7 19 1.8 35.3
15:15 1022 30.18 851 25.13 27.3 81.1 18 1.4 34.5
15:20 1022 30.18 851 25.13 27.6 81.7 18 1.6 34.8
15:25 1022 30.18 851 25.13 27.4 81.3 19 2.2 35.9
15:30 1022 30.18 851 25.13 27.4 81.3 19 1.9 35.5
15:35 1022 30.18 851 25.13 28 82.3 18 1.8 35.2
15:40 1022 30.18 851 25.13 28.1 82.7 17 0.9 33.7
15:45 1021 30.15 851 25.13 27.7 81.9 17 0.8 33.5
15:50 1021 30.15 851 25.13 27.5 81.5 17 0.5 33
15:55 1021 30.15 851 25.13 27.6 81.6 17 0.3 32.5
16:00 1021 30.15 851 25.13 27.9 82.3 15 -0.5 31.1
16:05 1021 30.15 851 25.13 28.1 82.6 15 -0.3 31.4
16:10 1021 30.15 851 25.13 28 82.4 17 1.1 34.1
16:15 1021 30.15 851 25.13 27.3 81.2 18 1.2 34.1
16:20 1021 30.15 851 25.13 27.1 80.8 16 -0.7 30.8
16:25 1021 30.15 851 25.13 27.2 81 17 0.2 32.3
16:30 1021 30.15 851 25.13 27.4 81.4 16 -0.7 30.8
16:35 1021 30.15 851 25.13 27.1 80.8 17 -0 31.9
16:40 1021 30.15 851 25.13 27.5 81.6 15 -1.3 29.7
16:45 1021 30.15 851 25.13 27.2 80.9 16 -0.7 30.7
16:50 1021 30.15 851 25.13 26.7 80 15 -1.5 29.4
16:55 1021 30.15 851 25.13 26.3 79.4 16 -1.5 29.3
17:00 1021 30.15 850 25.1 26.4 79.5 16 -1 30.2
17:05 1021 30.15 850 25.1 26.8 80.2 15 -2 28.3
17:10 1021 30.15 850 25.1 26.9 80.4 15 -1.2 29.8
17:15 1021 30.15 850 25.1 26.7 80 15 -1.7 28.9
17:20 1021 30.15 850 25.1 27.1 80.8 16 -0.3 31.4
17:25 1021 30.15 850 25.1 27.6 81.7 14 -2.1 28.3
17:30 1021 30.15 850 25.1 28.2 82.8 14 -1.9 28.6
17:35 1021 30.15 850 25.1 28.5 83.3 13 -1.9 28.6
17:40 1021 30.15 850 25.1 28.8 83.8 13 -1.6 29.2
17:45 1021 30.15 850 25.1 28.4 83 13 -2 28.4
17:50 1021 30.15 850 25.1 28.2 82.8 14 -1.7 28.9
17:55 1021 30.15 850 25.1 27.7 81.8 14 -2.2 28.1
18:00 1021 30.15 850 25.1 27.8 82.1 13 -2.7 27.2
18:05 1021 30.15 850 25.1 28.1 82.5 13 -2.3 27.8
18:10 1021 30.15 850 25.1 28.3 83 14 -1.8 28.8
18:15 1021 30.15 850 25.1 27.8 82 14 -2.2 28.1
18:20 1021 30.15 850 25.1 27.1 80.7 14 -2.4 27.7
18:25 1021 30.15 850 25.1 27.5 81.4 14 -2.3 27.9
18:30 1021 30.15 850 25.1 27.3 81.2 14 -2 28.4
18:35 1021 30.15 850 25.1 27.6 81.7 13 -2.6 27.4
18:40 1021 30.15 850 25.1 27.8 82 14 -2.2 28.1
18:45 1021 30.15 850 25.1 27.4 81.3 14 -2.2 28.1
18:50 1021 30.15 850 25.1 27.2 81 14 -2.6 27.4
18:55 1021 30.15 850 25.1 26.7 80.1 15 -1.4 29.4
19:00 1021 30.15 850 25.1 26.5 79.7 17 -0.3 31.5
19:05 1021 30.15 850 25.1 26.5 79.6 15 -1.8 28.8
19:10 1021 30.15 850 25.1 26.4 79.5 15 -2.1 28.2
19:15 1021 30.15 850 25.1 26.1 79.1 15 -2 28.5
19:20 1021 30.15 850 25.1 26.1 79 15 -2.4 27.7
19:25 1021 30.15 850 25.1 26.1 79 15 -2.7 27.1
19:30 1021 30.15 850 25.1 26.1 79 15 -2.5 27.5
19:35 1021 30.15 850 25.1 26 78.8 15 -2.3 27.8
19:40 1021 30.15 850 25.1 25.9 78.7 16 -1.6 29.2
19:45 1021 30.15 850 25.1 26 78.8 16 -1.7 28.9
19:50 1021 30.15 850 25.1 25.8 78.5 15 -2.1 28.1
19:55 1021 30.15 850 25.1 25.7 78.3 17 -0.5 31.1
20:00 1021 30.15 850 25.1 25.6 78 17 -1.3 29.7
20:05 1021 30.15 850 25.1 25.4 77.7 17 -1 30.1
20:10 1021 30.15 850 25.1 25.2 77.4 19 -0 32
20:15 1021 30.15 850 25.1 25.1 77.2 24 3.5 38.4
20:20 1021 30.15 850 25.1 24.8 76.6 28 5.4 41.7
20:25 1021 30.15 850 25.1 24.3 75.7 28 4.8 40.6
20:30 1021 30.15 850 25.1 23.9 75 27 4.2 39.6
20:35 1021 30.15 850 25.1 23.4 74.2 31 5.5 42
20:40 1021 30.15 851 25.13 22.7 72.9 36 6.9 44.4
20:45 1021 30.15 851 25.13 22.1 71.7 33 5.3 41.6
20:50 1021 30.15 851 25.13 21.6 70.8 33 4.7 40.4
20:55 1021 30.15 851 25.13 21.2 70.1 33 4.3 39.7
21:00 1021 30.15 851 25.13 20.9 69.7 37 5.8 42.5
21:05 1021 30.15 851 25.13 20.7 69.2 36 5.2 41.3
21:10 1021 30.15 851 25.13 20.3 68.5 35 4.4 40
21:15 1022 30.18 851 25.13 19.7 67.4 40 5.9 42.7
21:20 1022 30.18 851 25.13 18.9 65.9 41 5.4 41.7
21:25 1022 30.18 851 25.13 18.6 65.5 36 3.5 38.2
21:30 1022 30.18 851 25.13 18.7 65.7 37 4 39.1
21:35 1022 30.18 851 25.13 18.5 65.3 35 2.9 37.2
21:40 1022 30.18 851 25.13 18.7 65.7 33 2.2 35.9
21:45 1022 30.18 851 25.13 19.1 66.3 31 1.9 35.4
21:50 1022 30.18 851 25.13 19 66.2 32 2.2 35.9
21:55 1022 30.18 851 25.13 18.7 65.6 32 2 35.6
22:00 1022 30.18 851 25.13 18.5 65.3 34 2.3 36.1
22:05 1022 30.18 851 25.13 18.2 64.7 34 2.3 36.2
22:10 1022 30.18 851 25.13 17.9 64.2 35 2.2 36
22:15 1022 30.18 851 25.13 17.7 63.9 34 1.8 35.3
22:20 1022 30.18 851 25.13 17.8 64 34 1.7 35
22:25 1022 30.18 851 25.13 17.9 64.1 33 1.7 35.1
22:30 1022 30.18 851 25.13 17.8 64 34 1.8 35.3
22:35 1022 30.18 851 25.13 17.6 63.7 34 1.9 35.4
22:40 1022 30.18 851 25.13 17.5 63.4 35 1.9 35.3
22:45 1022 30.18 851 25.13 17.5 63.5 34 1.5 34.7
22:50 1022 30.18 851 25.13 17.5 63.5 34 1.6 34.8
22:55 1022 30.18 851 25.13 17.5 63.5 33 1.3 34.3
23:00 1022 30.18 851 25.13 17.8 64 32 1.1 34.1
23:05 1022 30.18 851 25.13 17.9 64.2 32 1.3 34.3
23:10 1022 30.18 851 25.13 17.7 63.9 33 1.5 34.7
23:15 1022 30.18 851 25.13 17.4 63.3 34 1.5 34.7
23:20 1022 30.18 851 25.13 17 62.5 35 1.5 34.6
23:25 1022 30.18 851 25.13 17 62.6 34 1.2 34.2
23:30 1022 30.18 851 25.13 17.1 62.8 33 1 33.8
23:35 1022 30.18 852 25.16 17.2 63 34 1.1 34
23:40 1022 30.18 852 25.16 17.1 62.8 34 1.2 34.1
23:45 1022 30.18 852 25.16 17 62.6 34 1 33.9
23:50 1022 30.18 852 25.16 17.1 62.7 33 0.8 33.5
23:55 1022 30.18 852 25.16 17.1 62.9 33 0.9 33.7
24:00 1022 30.18 852 25.16 17 62.5 34 1.1 33.9